Time;durP1;ratioP1;P1;durP2;ratioP2;P2;SDS_P1;SDS_P2;PMS_P1;PMS_P2;Temp;Humidity;BMP_temperature;BMP_pressure;BME280_temperature;BME280_humidity;BME280_pressure;Samples;Min_cycle;Max_cycle;Signal;HPM_P1;HPM_P2
2023/06/01 00:07:44;;;;;;;9.68;4.15;;;;;;;13.44;57.62;100382.84;30852048;28;96720;-71
2023/06/01 00:22:44;;;;;;;11.27;3.75;;;;;;;13.32;58.08;100376.25;30851168;28;97510;-69
2023/06/01 00:37:45;;;;;;;9.52;4.05;;;;;;;13.11;58.22;100369.78;30860807;28;96677;-70
2023/06/01 00:52:48;;;;;;;7.40;3.58;;;;;;;12.84;59.15;100369.34;30869151;28;97117;-71
2023/06/01 01:08:14;;;;;;;8.00;4.80;;;;;;;12.62;59.34;100356.84;30867470;28;96877;-71
2023/06/01 01:23:24;;;;;;;9.10;4.93;;;;;;;12.47;60.42;100356.81;30865826;28;96629;-72
2023/06/01 01:38:24;;;;;;;6.17;3.77;;;;;;;12.28;60.73;100356.25;30863334;28;96869;-72
2023/06/01 01:53:26;;;;;;;7.25;3.60;;;;;;;12.05;60.73;100332.19;30862885;28;97435;-71
2023/06/01 02:08:26;;;;;;;10.43;4.77;;;;;;;11.87;61.77;100324.44;30863132;28;97177;-71
2023/06/01 02:23:27;;;;;;;16.83;4.97;;;;;;;11.75;62.26;100332.00;30859859;28;99373;-72
2023/06/01 02:38:27;;;;;;;10.27;4.53;;;;;;;11.60;62.48;100317.72;30859310;28;96742;-71
2023/06/01 02:53:28;;;;;;;17.60;4.72;;;;;;;11.44;63.04;100314.13;30857196;28;96959;-71
2023/06/01 03:08:28;;;;;;;7.38;4.40;;;;;;;11.38;63.11;100306.81;30856121;28;97380;-72
2023/06/01 03:23:30;;;;;;;7.10;4.20;;;;;;;11.30;63.18;100304.19;30855406;28;96702;-72
2023/06/01 03:38:30;;;;;;;16.00;4.13;;;;;;;11.46;63.84;100316.63;30854275;28;96901;-71
2023/06/01 03:53:31;;;;;;;9.80;4.40;;;;;;;11.77;64.09;100311.31;30850822;28;101910;-72
2023/06/01 04:08:31;;;;;;;9.15;4.65;;;;;;;12.26;63.45;100298.69;30856363;28;96771;-72
2023/06/01 04:23:32;;;;;;;9.90;4.30;;;;;;;12.79;63.15;100296.06;30869868;28;111140;-70
2023/06/01 04:38:32;;;;;;;15.57;6.22;;;;;;;13.19;62.03;100276.06;30867501;28;96879;-68
2023/06/01 04:53:33;;;;;;;9.95;4.45;;;;;;;13.61;61.73;100267.56;30866340;28;97523;-69
2023/06/01 05:08:33;;;;;;;9.63;4.38;;;;;;;14.22;61.39;100262.59;30855222;28;110524;-69
2023/06/01 05:23:33;;;;;;;11.55;4.60;;;;;;;14.88;60.15;100257.97;30793448;28;97418;-69
2023/06/01 05:38:34;;;;;;;10.88;2.85;;;;;;;15.84;58.40;100249.13;30855572;28;96929;-67
2023/06/01 05:53:34;;;;;;;7.50;2.83;;;;;;;17.22;56.05;100246.78;30851903;28;97064;-70
2023/06/01 06:08:34;;;;;;;6.22;3.05;;;;;;;18.58;53.05;100233.91;30854295;28;96851;-67
2023/06/01 06:23:35;;;;;;;9.70;2.72;;;;;;;19.79;48.57;100235.19;30854859;28;96650;-64
2023/06/01 06:38:35;;;;;;;7.57;2.92;;;;;;;20.71;44.87;100227.72;30853901;28;106153;-68
2023/06/01 06:53:35;;;;;;;6.67;2.23;;;;;;;21.60;42.32;100230.13;30851983;28;114153;-68
2023/06/01 07:08:36;;;;;;;4.17;2.20;;;;;;;22.44;38.87;100212.31;30776173;28;97472;-65
2023/06/01 07:23:36;;;;;;;9.00;3.20;;;;;;;23.62;36.61;100209.41;30729736;28;107959;-69
2023/06/01 07:38:36;;;;;;;6.63;2.13;;;;;;;24.29;35.00;100208.13;30786155;28;97080;-69
2023/06/01 07:53:36;;;;;;;6.07;2.08;;;;;;;25.21;31.61;100200.75;30793077;28;103595;-68
2023/06/01 08:08:38;;;;;;;7.25;2.00;;;;;;;25.92;30.20;100189.16;30817306;28;109627;-67
2023/06/01 08:23:38;;;;;;;4.40;2.10;;;;;;;26.76;27.54;100185.25;30784882;28;96965;-69
2023/06/01 08:38:39;;;;;;;6.03;1.80;;;;;;;27.66;26.48;100183.41;30784248;28;96785;-66
2023/06/01 08:53:42;;;;;;;5.40;1.50;;;;;;;28.65;23.57;100165.00;30765949;28;97855;-67
2023/06/01 09:08:44;;;;;;;4.77;1.23;;;;;;;28.66;23.47;100151.00;30741550;28;97132;-68
2023/06/01 09:23:44;;;;;;;2.33;1.10;;;;;;;29.16;23.33;100128.72;30755473;28;97284;-67
2023/06/01 09:38:45;;;;;;;2.28;1.00;;;;;;;28.55;23.70;100130.31;30739981;28;96747;-67
2023/06/01 09:53:45;;;;;;;3.47;1.20;;;;;;;29.71;22.66;100108.94;30740949;28;96789;-66
2023/06/01 10:08:47;;;;;;;2.40;1.35;;;;;;;30.26;22.45;100104.66;30791667;28;109130;-65
2023/06/01 10:23:48;;;;;;;4.47;1.60;;;;;;;29.25;23.93;100097.91;30735383;28;97558;-65
2023/06/01 10:38:48;;;;;;;4.00;1.75;;;;;;;29.36;23.74;100083.72;30737799;28;97070;-68
2023/06/01 10:53:48;;;;;;;2.90;1.30;;;;;;;29.10;24.14;100068.75;30732776;28;97082;-67
2023/06/01 11:08:51;;;;;;;4.20;1.75;;;;;;;28.58;25.58;100063.13;30729701;28;97049;-66
2023/06/01 11:23:54;;;;;;;5.93;1.20;;;;;;;29.06;23.92;100046.59;30729512;28;97499;-66
2023/06/01 11:38:55;;;;;;;9.03;1.70;;;;;;;28.72;25.21;100041.31;30729136;28;96817;-66
2023/06/01 11:53:56;;;;;;;3.47;1.70;;;;;;;28.99;25.02;100027.78;30728852;28;96744;-67
2023/06/01 12:08:57;;;;;;;5.27;2.23;;;;;;;28.78;25.63;100007.28;30726807;28;96823;-69
2023/06/01 12:23:59;;;;;;;3.27;1.83;;;;;;;28.17;26.51;99993.25;30725417;28;97860;-66
2023/06/01 12:39:01;;;;;;;4.87;1.97;;;;;;;28.74;25.68;99970.59;30739902;28;96847;-65
2023/06/01 12:54:02;;;;;;;7.60;2.10;;;;;;;28.46;26.45;99964.94;30743068;28;96593;-65
2023/06/01 13:09:02;;;;;;;6.30;2.40;;;;;;;28.26;25.74;99941.41;30741938;28;97068;-65
2023/06/01 13:24:03;;;;;;;5.70;2.30;;;;;;;27.91;25.59;99936.03;30764561;28;96743;-67
2023/06/01 13:39:04;;;;;;;5.00;2.33;;;;;;;27.23;25.51;99918.72;30768047;28;96839;-65
2023/06/01 13:54:04;;;;;;;4.60;2.20;;;;;;;27.18;26.48;99907.81;30737645;28;98341;-65
2023/06/01 14:09:05;;;;;;;5.97;2.47;;;;;;;27.52;26.35;99893.28;30793197;28;97058;-67
2023/06/01 14:24:05;;;;;;;6.35;2.17;;;;;;;27.03;27.31;99874.03;30852743;28;97170;-66
2023/06/01 14:39:06;;;;;;;4.90;2.13;;;;;;;27.13;28.12;99875.06;30850738;28;97377;-66
2023/06/01 14:54:06;;;;;;;5.47;2.55;;;;;;;27.08;28.56;99856.78;30844358;28;101058;-68
2023/06/01 15:09:06;;;;;;;8.32;2.50;;;;;;;26.82;30.16;99839.84;30828134;28;97775;-65
2023/06/01 15:24:08;;;;;;;4.83;2.33;;;;;;;26.76;29.23;99828.09;30780301;28;98213;-66
2023/06/01 15:39:10;;;;;;;15.45;2.42;;;;;;;26.68;29.21;99807.69;30842850;28;97358;-66
2023/06/01 15:54:10;;;;;;;5.97;2.37;;;;;;;26.32;29.06;99794.31;30841151;28;96792;-66
2023/06/01 16:09:10;;;;;;;7.50;2.40;;;;;;;26.18;29.24;99783.22;30851229;28;96901;-66
2023/06/01 16:24:11;;;;;;;7.47;2.35;;;;;;;25.98;28.83;99773.22;30852840;28;97221;-67
2023/06/01 16:39:12;;;;;;;5.15;2.22;;;;;;;25.75;28.78;99773.94;30842134;28;97237;-66
2023/06/01 16:54:13;;;;;;;5.43;2.67;;;;;;;25.46;29.21;99758.25;30840744;28;97799;-67
2023/06/01 17:09:15;;;;;;;5.82;2.75;;;;;;;25.07;29.19;99757.03;30770343;28;96784;-69
2023/06/01 17:24:16;;;;;;;7.00;3.77;;;;;;;24.78;29.65;99752.22;30779083;28;97491;-68
2023/06/01 17:39:21;;;;;;;6.25;2.97;;;;;;;24.35;28.49;99764.47;30797282;28;106803;-69
2023/06/01 17:54:21;;;;;;;7.10;2.70;;;;;;;23.86;28.44;99757.59;30797129;28;96999;-69
2023/06/01 18:09:21;;;;;;;5.70;2.85;;;;;;;23.33;28.75;99772.09;30824472;28;97077;-68
2023/06/01 18:24:22;;;;;;;13.27;3.75;;;;;;;22.79;29.72;99773.16;30851189;28;98386;-68
2023/06/01 18:39:22;;;;;;;;;;;;;;;22.20;31.03;99782.97;30848627;28;97426;-67
2023/06/01 18:54:23;;;;;;;9.23;3.20;;;;;;;21.69;31.28;99793.28;30848044;28;96815;-68
2023/06/01 19:09:24;;;;;;;6.77;2.97;;;;;;;21.17;31.58;99818.88;30845661;28;97659;-77
2023/06/01 19:24:25;;;;;;;9.43;3.33;;;;;;;20.67;32.35;99831.38;30829618;28;96835;-64
2023/06/01 19:39:28;;;;;;;11.43;3.60;;;;;;;20.26;34.12;99840.44;30734800;28;96918;-67
2023/06/01 19:54:28;;;;;;;8.17;3.33;;;;;;;19.86;36.55;99845.88;30751781;28;96694;-68
2023/06/01 20:09:29;;;;;;;7.22;3.40;;;;;;;19.48;38.49;99863.44;30750438;28;107759;-71
2023/06/01 20:24:30;;;;;;;8.93;3.22;;;;;;;19.05;40.21;99878.97;30841989;28;97398;-67
2023/06/01 20:39:30;;;;;;;11.17;3.23;;;;;;;18.67;41.60;99874.78;30870496;28;96769;-65
2023/06/01 20:54:31;;;;;;;8.95;4.22;;;;;;;18.31;42.75;99881.94;30868474;28;96772;-68
2023/06/01 21:09:31;;;;;;;7.22;4.55;;;;;;;17.91;44.39;99894.88;30867763;28;97405;-67
2023/06/01 21:24:31;;;;;;;12.85;5.35;;;;;;;17.51;46.20;99922.25;30866920;28;96768;-67
2023/06/01 21:39:32;;;;;;;11.00;5.60;;;;;;;17.08;48.07;99925.72;30864641;28;96752;-69
2023/06/01 21:54:32;;;;;;;10.05;5.25;;;;;;;16.67;49.39;99943.19;30863887;28;97437;-70
2023/06/01 22:09:32;;;;;;;9.05;5.35;;;;;;;16.34;50.58;99944.19;30861982;28;96767;-70
2023/06/01 22:24:33;;;;;;;10.15;5.68;;;;;;;16.04;51.82;99958.16;30860896;28;96664;-70
2023/06/01 22:39:33;;;;;;;10.52;5.63;;;;;;;15.76;52.82;99953.88;30860197;28;97447;-69
2023/06/01 22:54:34;;;;;;;9.10;5.30;;;;;;;15.53;53.79;99965.88;30858158;28;97351;-69
2023/06/01 23:09:34;;;;;;;8.00;4.95;;;;;;;15.27;54.38;99956.00;30856887;28;96700;-69
2023/06/01 23:24:35;;;;;;;9.85;5.43;;;;;;;15.02;55.53;99967.34;30855173;28;97290;-68
2023/06/01 23:39:36;;;;;;;12.10;4.80;;;;;;;14.84;56.04;99975.13;30855458;28;96660;-68
2023/06/01 23:54:36;;;;;;;11.90;5.07;;;;;;;14.69;56.24;99989.56;30854104;28;97293;-66
